sensor_id;sensor_type;location;lat;lon;timestamp;temperature;humidity
23010;DHT22;11671;49.990;8.028;2022-07-06T00:01:34;19.90;99.90
23010;DHT22;11671;49.990;8.028;2022-07-06T00:04:03;19.90;99.90
23010;DHT22;11671;49.990;8.028;2022-07-06T00:06:29;19.90;99.90
23010;DHT22;11671;49.990;8.028;2022-07-06T00:08:54;19.90;99.90
23010;DHT22;11671;49.990;8.028;2022-07-06T00:11:20;19.90;99.90
23010;DHT22;11671;49.990;8.028;2022-07-06T00:13:45;19.90;99.90
23010;DHT22;11671;49.990;8.028;2022-07-06T00:16:11;19.80;99.90
23010;DHT22;11671;49.990;8.028;2022-07-06T00:18:36;19.90;99.90
23010;DHT22;11671;49.990;8.028;2022-07-06T00:21:02;20.00;99.90
23010;DHT22;11671;49.990;8.028;2022-07-06T00:23:27;19.90;99.90
23010;DHT22;11671;49.990;8.028;2022-07-06T00:25:53;19.90;99.90
23010;DHT22;11671;49.990;8.028;2022-07-06T00:28:19;19.80;99.90
23010;DHT22;11671;49.990;8.028;2022-07-06T00:30:44;19.80;99.90
23010;DHT22;11671;49.990;8.028;2022-07-06T00:33:10;19.80;99.90
23010;DHT22;11671;49.990;8.028;2022-07-06T00:35:35;19.70;99.90
23010;DHT22;11671;49.990;8.028;2022-07-06T00:38:01;19.60;99.90
23010;DHT22;11671;49.990;8.028;2022-07-06T00:40:26;19.60;99.90
23010;DHT22;11671;49.990;8.028;2022-07-06T00:42:52;19.60;99.90
23010;DHT22;11671;49.990;8.028;2022-07-06T00:45:18;19.50;99.90
23010;DHT22;11671;49.990;8.028;2022-07-06T00:47:44;19.50;99.90
23010;DHT22;11671;49.990;8.028;2022-07-06T00:50:10;19.40;99.90
23010;DHT22;11671;49.990;8.028;2022-07-06T00:52:39;19.40;99.90
23010;DHT22;11671;49.990;8.028;2022-07-06T00:55:05;19.30;99.90
23010;DHT22;11671;49.990;8.028;2022-07-06T00:57:30;19.30;99.90
23010;DHT22;11671;49.990;8.028;2022-07-06T00:59:56;19.20;99.90
23010;DHT22;11671;49.990;8.028;2022-07-06T01:02:22;19.20;99.90
23010;DHT22;11671;49.990;8.028;2022-07-06T01:04:47;19.20;99.90
23010;DHT22;11671;49.990;8.028;2022-07-06T01:07:13;19.10;99.90
23010;DHT22;11671;49.990;8.028;2022-07-06T01:09:39;19.10;99.90
23010;DHT22;11671;49.990;8.028;2022-07-06T01:12:04;19.10;99.90
23010;DHT22;11671;49.990;8.028;2022-07-06T01:14:30;19.10;99.90
23010;DHT22;11671;49.990;8.028;2022-07-06T01:16:55;19.20;99.90
23010;DHT22;11671;49.990;8.028;2022-07-06T01:19:21;19.10;99.90
23010;DHT22;11671;49.990;8.028;2022-07-06T01:21:47;19.10;99.90
23010;DHT22;11671;49.990;8.028;2022-07-06T01:24:13;19.10;99.90
23010;DHT22;11671;49.990;8.028;2022-07-06T01:26:38;19.00;99.90
23010;DHT22;11671;49.990;8.028;2022-07-06T01:29:04;19.00;99.90
23010;DHT22;11671;49.990;8.028;2022-07-06T01:31:29;18.90;99.90
23010;DHT22;11671;49.990;8.028;2022-07-06T01:33:55;18.90;99.90
23010;DHT22;11671;49.990;8.028;2022-07-06T01:36:21;18.80;99.90
23010;DHT22;11671;49.990;8.028;2022-07-06T01:38:47;18.80;99.90
23010;DHT22;11671;49.990;8.028;2022-07-06T01:41:13;18.70;99.90
23010;DHT22;11671;49.990;8.028;2022-07-06T01:43:38;18.70;99.90
23010;DHT22;11671;49.990;8.028;2022-07-06T01:46:04;18.70;99.90
23010;DHT22;11671;49.990;8.028;2022-07-06T01:48:30;18.70;99.90
23010;DHT22;11671;49.990;8.028;2022-07-06T01:50:55;18.60;99.90
23010;DHT22;11671;49.990;8.028;2022-07-06T01:53:21;18.60;99.90
23010;DHT22;11671;49.990;8.028;2022-07-06T01:55:46;18.60;99.90
23010;DHT22;11671;49.990;8.028;2022-07-06T01:58:12;18.60;99.90
23010;DHT22;11671;49.990;8.028;2022-07-06T02:00:37;18.50;99.90
23010;DHT22;11671;49.990;8.028;2022-07-06T02:03:03;18.50;99.90
23010;DHT22;11671;49.990;8.028;2022-07-06T02:05:28;18.40;99.90
23010;DHT22;11671;49.990;8.028;2022-07-06T02:07:54;18.30;99.90
23010;DHT22;11671;49.990;8.028;2022-07-06T02:10:19;18.30;99.90
23010;DHT22;11671;49.990;8.028;2022-07-06T02:12:45;18.30;99.90
23010;DHT22;11671;49.990;8.028;2022-07-06T02:15:10;18.20;99.90
23010;DHT22;11671;49.990;8.028;2022-07-06T02:17:36;18.30;99.90
23010;DHT22;11671;49.990;8.028;2022-07-06T02:20:02;18.30;99.90
23010;DHT22;11671;49.990;8.028;2022-07-06T02:22:28;18.20;99.90
23010;DHT22;11671;49.990;8.028;2022-07-06T02:24:54;18.10;99.90
23010;DHT22;11671;49.990;8.028;2022-07-06T02:27:19;18.00;99.90
23010;DHT22;11671;49.990;8.028;2022-07-06T02:29:45;18.00;99.90
23010;DHT22;11671;49.990;8.028;2022-07-06T02:32:10;18.00;99.90
23010;DHT22;11671;49.990;8.028;2022-07-06T02:34:36;18.10;99.90
23010;DHT22;11671;49.990;8.028;2022-07-06T02:37:01;17.90;99.90
23010;DHT22;11671;49.990;8.028;2022-07-06T02:39:27;17.80;99.90
23010;DHT22;11671;49.990;8.028;2022-07-06T02:41:52;17.80;99.90
23010;DHT22;11671;49.990;8.028;2022-07-06T02:44:18;17.70;99.90
23010;DHT22;11671;49.990;8.028;2022-07-06T02:46:43;17.80;99.90
23010;DHT22;11671;49.990;8.028;2022-07-06T02:49:09;17.80;99.90
23010;DHT22;11671;49.990;8.028;2022-07-06T02:51:34;17.90;99.90
23010;DHT22;11671;49.990;8.028;2022-07-06T02:54:00;17.90;99.90
23010;DHT22;11671;49.990;8.028;2022-07-06T02:56:25;17.80;99.90
23010;DHT22;11671;49.990;8.028;2022-07-06T02:58:51;17.70;99.90
23010;DHT22;11671;49.990;8.028;2022-07-06T03:01:16;17.70;99.90
23010;DHT22;11671;49.990;8.028;2022-07-06T03:03:42;17.70;99.90
23010;DHT22;11671;49.990;8.028;2022-07-06T03:06:07;17.60;99.90
23010;DHT22;11671;49.990;8.028;2022-07-06T03:08:33;17.60;99.90
23010;DHT22;11671;49.990;8.028;2022-07-06T03:10:59;17.40;99.90
23010;DHT22;11671;49.990;8.028;2022-07-06T03:13:25;17.40;99.90
23010;DHT22;11671;49.990;8.028;2022-07-06T03:15:51;17.40;99.90
23010;DHT22;11671;49.990;8.028;2022-07-06T03:18:17;17.40;99.90
23010;DHT22;11671;49.990;8.028;2022-07-06T03:20:42;17.50;99.90
23010;DHT22;11671;49.990;8.028;2022-07-06T03:23:08;17.40;99.90
23010;DHT22;11671;49.990;8.028;2022-07-06T03:25:33;17.50;99.90
23010;DHT22;11671;49.990;8.028;2022-07-06T03:27:59;17.50;99.90
23010;DHT22;11671;49.990;8.028;2022-07-06T03:30:24;17.50;99.90
23010;DHT22;11671;49.990;8.028;2022-07-06T03:32:50;17.50;99.90
23010;DHT22;11671;49.990;8.028;2022-07-06T03:35:15;17.60;99.90
23010;DHT22;11671;49.990;8.028;2022-07-06T03:37:41;17.60;99.90
23010;DHT22;11671;49.990;8.028;2022-07-06T03:40:06;17.70;99.90
23010;DHT22;11671;49.990;8.028;2022-07-06T03:42:32;17.70;99.90
23010;DHT22;11671;49.990;8.028;2022-07-06T03:44:58;17.70;99.90
23010;DHT22;11671;49.990;8.028;2022-07-06T03:47:23;17.70;99.90
23010;DHT22;11671;49.990;8.028;2022-07-06T03:49:48;17.70;99.90
23010;DHT22;11671;49.990;8.028;2022-07-06T03:52:14;17.70;99.90
23010;DHT22;11671;49.990;8.028;2022-07-06T03:54:39;17.70;99.90
23010;DHT22;11671;49.990;8.028;2022-07-06T03:57:05;17.60;99.90
23010;DHT22;11671;49.990;8.028;2022-07-06T03:59:30;17.60;99.90
23010;DHT22;11671;49.990;8.028;2022-07-06T04:01:56;17.60;99.90
23010;DHT22;11671;49.990;8.028;2022-07-06T04:04:21;17.60;99.90
23010;DHT22;11671;49.990;8.028;2022-07-06T04:06:47;17.60;99.90
23010;DHT22;11671;49.990;8.028;2022-07-06T04:09:12;17.60;99.90
23010;DHT22;11671;49.990;8.028;2022-07-06T04:11:38;17.60;99.90
23010;DHT22;11671;49.990;8.028;2022-07-06T04:14:03;17.50;99.90
23010;DHT22;11671;49.990;8.028;2022-07-06T04:16:29;17.50;99.90
23010;DHT22;11671;49.990;8.028;2022-07-06T04:18:54;17.50;99.90
23010;DHT22;11671;49.990;8.028;2022-07-06T04:21:20;17.50;99.90
23010;DHT22;11671;49.990;8.028;2022-07-06T04:23:45;17.50;99.90
23010;DHT22;11671;49.990;8.028;2022-07-06T04:26:11;17.40;99.90
23010;DHT22;11671;49.990;8.028;2022-07-06T04:28:37;17.40;99.90
23010;DHT22;11671;49.990;8.028;2022-07-06T04:31:02;17.50;99.90
23010;DHT22;11671;49.990;8.028;2022-07-06T04:33:28;17.60;99.90
23010;DHT22;11671;49.990;8.028;2022-07-06T04:35:53;17.60;99.90
23010;DHT22;11671;49.990;8.028;2022-07-06T04:38:19;17.70;99.90
23010;DHT22;11671;49.990;8.028;2022-07-06T04:40:44;17.70;99.90
23010;DHT22;11671;49.990;8.028;2022-07-06T04:43:12;17.60;99.90
23010;DHT22;11671;49.990;8.028;2022-07-06T04:45:37;17.50;99.90
23010;DHT22;11671;49.990;8.028;2022-07-06T04:48:03;17.50;99.90
23010;DHT22;11671;49.990;8.028;2022-07-06T04:50:29;17.60;99.90
23010;DHT22;11671;49.990;8.028;2022-07-06T04:52:54;17.70;99.90
23010;DHT22;11671;49.990;8.028;2022-07-06T04:55:20;17.70;99.90
23010;DHT22;11671;49.990;8.028;2022-07-06T04:57:45;17.80;99.90
23010;DHT22;11671;49.990;8.028;2022-07-06T05:00:11;18.00;99.90
23010;DHT22;11671;49.990;8.028;2022-07-06T05:02:37;18.10;99.90
23010;DHT22;11671;49.990;8.028;2022-07-06T05:05:02;18.20;99.90
23010;DHT22;11671;49.990;8.028;2022-07-06T05:07:28;18.30;99.90
23010;DHT22;11671;49.990;8.028;2022-07-06T05:09:56;18.30;99.90
23010;DHT22;11671;49.990;8.028;2022-07-06T05:12:22;18.40;99.90
23010;DHT22;11671;49.990;8.028;2022-07-06T05:14:47;18.50;99.90
23010;DHT22;11671;49.990;8.028;2022-07-06T05:17:13;18.40;99.90
23010;DHT22;11671;49.990;8.028;2022-07-06T05:19:38;18.50;99.90
23010;DHT22;11671;49.990;8.028;2022-07-06T05:24:32;18.80;99.90
23010;DHT22;11671;49.990;8.028;2022-07-06T05:26:58;19.30;99.90
23010;DHT22;11671;49.990;8.028;2022-07-06T05:31:49;21.20;99.90
23010;DHT22;11671;49.990;8.028;2022-07-06T05:36:41;22.80;99.90
23010;DHT22;11671;49.990;8.028;2022-07-06T05:39:06;24.20;99.90
23010;DHT22;11671;49.990;8.028;2022-07-06T05:41:32;25.60;99.90
23010;DHT22;11671;49.990;8.028;2022-07-06T05:46:23;27.50;99.90
23010;DHT22;11671;49.990;8.028;2022-07-06T05:48:49;29.40;96.60
23010;DHT22;11671;49.990;8.028;2022-07-06T05:51:33;29.40;96.90
23010;DHT22;11671;49.990;8.028;2022-07-06T05:56:25;30.20;99.90
23010;DHT22;11671;49.990;8.028;2022-07-06T05:58:51;30.20;99.00
23010;DHT22;11671;49.990;8.028;2022-07-06T06:01:16;30.10;99.90
23010;DHT22;11671;49.990;8.028;2022-07-06T06:03:42;30.30;98.70
23010;DHT22;11671;49.990;8.028;2022-07-06T06:08:33;30.10;82.40
23010;DHT22;11671;49.990;8.028;2022-07-06T06:10:59;30.00;85.60
23010;DHT22;11671;49.990;8.028;2022-07-06T06:13:24;30.70;83.40
23010;DHT22;11671;49.990;8.028;2022-07-06T06:15:50;30.50;81.50
23010;DHT22;11671;49.990;8.028;2022-07-06T06:18:15;30.40;81.00
23010;DHT22;11671;49.990;8.028;2022-07-06T06:20:44;30.50;79.30
23010;DHT22;11671;49.990;8.028;2022-07-06T06:23:09;29.90;79.50
23010;DHT22;11671;49.990;8.028;2022-07-06T06:25:38;30.20;80.70
23010;DHT22;11671;49.990;8.028;2022-07-06T06:28:04;30.70;78.30
23010;DHT22;11671;49.990;8.028;2022-07-06T06:30:30;30.60;77.50
23010;DHT22;11671;49.990;8.028;2022-07-06T06:33:15;30.60;77.40
23010;DHT22;11671;49.990;8.028;2022-07-06T06:35:42;30.70;76.40
23010;DHT22;11671;49.990;8.028;2022-07-06T06:38:08;30.60;76.50
23010;DHT22;11671;49.990;8.028;2022-07-06T06:40:33;30.80;96.40
23010;DHT22;11671;49.990;8.028;2022-07-06T06:42:59;30.80;94.90
23010;DHT22;11671;49.990;8.028;2022-07-06T06:47:51;31.20;72.40
23010;DHT22;11671;49.990;8.028;2022-07-06T06:50:16;30.20;74.40
23010;DHT22;11671;49.990;8.028;2022-07-06T06:52:42;29.20;75.30
23010;DHT22;11671;49.990;8.028;2022-07-06T06:55:07;28.30;77.10
23010;DHT22;11671;49.990;8.028;2022-07-06T06:57:33;28.30;78.60
23010;DHT22;11671;49.990;8.028;2022-07-06T06:59:59;28.40;78.60
23010;DHT22;11671;49.990;8.028;2022-07-06T07:02:24;28.40;78.50
23010;DHT22;11671;49.990;8.028;2022-07-06T07:04:50;28.30;78.60
23010;DHT22;11671;49.990;8.028;2022-07-06T07:07:15;28.60;78.20
23010;DHT22;11671;49.990;8.028;2022-07-06T07:09:41;29.00;78.40
23010;DHT22;11671;49.990;8.028;2022-07-06T07:12:06;29.20;76.80
23010;DHT22;11671;49.990;8.028;2022-07-06T07:14:32;29.10;77.10
23010;DHT22;11671;49.990;8.028;2022-07-06T07:16:58;29.00;77.40
23010;DHT22;11671;49.990;8.028;2022-07-06T07:19:23;29.10;78.00
23010;DHT22;11671;49.990;8.028;2022-07-06T07:21:48;29.10;76.90
23010;DHT22;11671;49.990;8.028;2022-07-06T07:24:14;29.00;76.70
23010;DHT22;11671;49.990;8.028;2022-07-06T07:26:40;28.70;77.20
23010;DHT22;11671;49.990;8.028;2022-07-06T07:29:05;28.70;76.80
23010;DHT22;11671;49.990;8.028;2022-07-06T07:31:31;28.70;76.90
23010;DHT22;11671;49.990;8.028;2022-07-06T07:33:56;28.50;76.60
23010;DHT22;11671;49.990;8.028;2022-07-06T07:36:24;28.10;75.60
23010;DHT22;11671;49.990;8.028;2022-07-06T07:38:50;27.50;77.70
23010;DHT22;11671;49.990;8.028;2022-07-06T07:41:15;27.30;79.70
23010;DHT22;11671;49.990;8.028;2022-07-06T07:43:42;27.60;80.90
23010;DHT22;11671;49.990;8.028;2022-07-06T07:46:07;27.60;78.50
23010;DHT22;11671;49.990;8.028;2022-07-06T07:48:33;27.50;76.80
23010;DHT22;11671;49.990;8.028;2022-07-06T07:50:58;27.80;77.20
23010;DHT22;11671;49.990;8.028;2022-07-06T07:53:24;28.00;77.90
23010;DHT22;11671;49.990;8.028;2022-07-06T07:55:49;27.90;78.40
23010;DHT22;11671;49.990;8.028;2022-07-06T07:58:15;27.80;78.80
23010;DHT22;11671;49.990;8.028;2022-07-06T08:00:41;27.60;79.90
23010;DHT22;11671;49.990;8.028;2022-07-06T08:03:06;27.50;79.70
23010;DHT22;11671;49.990;8.028;2022-07-06T08:05:32;27.80;78.60
23010;DHT22;11671;49.990;8.028;2022-07-06T08:07:57;28.00;77.10
23010;DHT22;11671;49.990;8.028;2022-07-06T08:10:23;28.00;77.40
23010;DHT22;11671;49.990;8.028;2022-07-06T08:12:48;27.80;76.80
23010;DHT22;11671;49.990;8.028;2022-07-06T08:15:14;27.40;78.00
23010;DHT22;11671;49.990;8.028;2022-07-06T08:17:39;27.30;78.30
23010;DHT22;11671;49.990;8.028;2022-07-06T08:20:05;26.80;77.90
23010;DHT22;11671;49.990;8.028;2022-07-06T08:22:31;26.40;79.50
23010;DHT22;11671;49.990;8.028;2022-07-06T08:24:56;26.30;79.80
23010;DHT22;11671;49.990;8.028;2022-07-06T08:27:23;26.10;79.00
23010;DHT22;11671;49.990;8.028;2022-07-06T08:29:49;26.10;79.70
23010;DHT22;11671;49.990;8.028;2022-07-06T08:32:14;26.10;80.20
23010;DHT22;11671;49.990;8.028;2022-07-06T08:34:40;26.10;79.70
23010;DHT22;11671;49.990;8.028;2022-07-06T08:37:05;26.20;80.10
23010;DHT22;11671;49.990;8.028;2022-07-06T08:39:31;26.10;79.70
23010;DHT22;11671;49.990;8.028;2022-07-06T08:41:56;25.90;79.10
23010;DHT22;11671;49.990;8.028;2022-07-06T08:44:24;25.80;78.80
23010;DHT22;11671;49.990;8.028;2022-07-06T08:46:49;25.70;80.30
23010;DHT22;11671;49.990;8.028;2022-07-06T08:49:17;25.70;81.00
23010;DHT22;11671;49.990;8.028;2022-07-06T08:51:44;25.90;80.20
23010;DHT22;11671;49.990;8.028;2022-07-06T08:54:10;26.00;80.30
23010;DHT22;11671;49.990;8.028;2022-07-06T08:56:36;26.00;80.20
23010;DHT22;11671;49.990;8.028;2022-07-06T08:59:02;26.20;80.60
23010;DHT22;11671;49.990;8.028;2022-07-06T09:01:27;26.10;80.20
23010;DHT22;11671;49.990;8.028;2022-07-06T09:03:54;26.00;81.80
23010;DHT22;11671;49.990;8.028;2022-07-06T09:06:22;26.20;81.50
23010;DHT22;11671;49.990;8.028;2022-07-06T09:08:48;26.00;79.70
23010;DHT22;11671;49.990;8.028;2022-07-06T09:11:14;25.90;81.60
23010;DHT22;11671;49.990;8.028;2022-07-06T09:13:40;25.50;81.90
23010;DHT22;11671;49.990;8.028;2022-07-06T09:16:09;25.20;82.00
23010;DHT22;11671;49.990;8.028;2022-07-06T09:18:38;25.20;82.90
23010;DHT22;11671;49.990;8.028;2022-07-06T09:21:05;25.40;83.10
23010;DHT22;11671;49.990;8.028;2022-07-06T09:23:30;25.50;82.10
23010;DHT22;11671;49.990;8.028;2022-07-06T09:25:56;25.50;83.30
23010;DHT22;11671;49.990;8.028;2022-07-06T09:28:21;25.30;84.40
23010;DHT22;11671;49.990;8.028;2022-07-06T09:30:47;24.90;84.10
23010;DHT22;11671;49.990;8.028;2022-07-06T09:33:12;25.00;84.50
23010;DHT22;11671;49.990;8.028;2022-07-06T09:35:42;25.00;83.70
23010;DHT22;11671;49.990;8.028;2022-07-06T09:38:11;24.90;82.50
23010;DHT22;11671;49.990;8.028;2022-07-06T09:40:38;25.10;82.20
23010;DHT22;11671;49.990;8.028;2022-07-06T09:45:38;25.40;82.50
23010;DHT22;11671;49.990;8.028;2022-07-06T09:48:14;25.50;82.20
23010;DHT22;11671;49.990;8.028;2022-07-06T09:50:44;25.50;82.80
23010;DHT22;11671;49.990;8.028;2022-07-06T09:53:10;25.50;83.70
23010;DHT22;11671;49.990;8.028;2022-07-06T09:55:36;25.20;84.70
23010;DHT22;11671;49.990;8.028;2022-07-06T09:58:02;25.00;83.30
23010;DHT22;11671;49.990;8.028;2022-07-06T10:00:27;25.20;83.10
23010;DHT22;11671;49.990;8.028;2022-07-06T10:02:53;25.60;81.50
23010;DHT22;11671;49.990;8.028;2022-07-06T10:05:19;26.00;79.40
23010;DHT22;11671;49.990;8.028;2022-07-06T10:07:47;25.60;81.80
23010;DHT22;11671;49.990;8.028;2022-07-06T10:10:15;25.60;82.20
23010;DHT22;11671;49.990;8.028;2022-07-06T10:12:40;25.90;81.80
23010;DHT22;11671;49.990;8.028;2022-07-06T10:15:07;25.60;80.90
23010;DHT22;11671;49.990;8.028;2022-07-06T10:17:33;25.50;82.10
23010;DHT22;11671;49.990;8.028;2022-07-06T10:19:59;25.70;82.00
23010;DHT22;11671;49.990;8.028;2022-07-06T10:22:24;25.80;82.00
23010;DHT22;11671;49.990;8.028;2022-07-06T10:24:50;26.10;82.60
23010;DHT22;11671;49.990;8.028;2022-07-06T10:27:16;26.40;81.90
23010;DHT22;11671;49.990;8.028;2022-07-06T10:29:42;26.70;80.70
23010;DHT22;11671;49.990;8.028;2022-07-06T10:32:07;26.90;81.30
23010;DHT22;11671;49.990;8.028;2022-07-06T10:34:33;26.90;79.50
23010;DHT22;11671;49.990;8.028;2022-07-06T10:37:01;26.90;78.50
23010;DHT22;11671;49.990;8.028;2022-07-06T10:39:37;26.70;78.40
23010;DHT22;11671;49.990;8.028;2022-07-06T10:42:55;26.40;79.90
23010;DHT22;11671;49.990;8.028;2022-07-06T10:45:20;26.40;80.90
23010;DHT22;11671;49.990;8.028;2022-07-06T10:48:08;26.20;80.60
23010;DHT22;11671;49.990;8.028;2022-07-06T10:50:34;26.10;81.10
23010;DHT22;11671;49.990;8.028;2022-07-06T10:53:00;26.00;80.90
23010;DHT22;11671;49.990;8.028;2022-07-06T10:55:29;26.00;81.30
23010;DHT22;11671;49.990;8.028;2022-07-06T10:57:55;26.10;79.40
23010;DHT22;11671;49.990;8.028;2022-07-06T11:00:20;26.20;80.60
23010;DHT22;11671;49.990;8.028;2022-07-06T11:02:46;26.50;80.70
23010;DHT22;11671;49.990;8.028;2022-07-06T11:05:11;26.20;81.00
23010;DHT22;11671;49.990;8.028;2022-07-06T11:08:23;26.10;81.40
23010;DHT22;11671;49.990;8.028;2022-07-06T11:10:24;26.10;81.20
23010;DHT22;11671;49.990;8.028;2022-07-06T11:12:49;26.20;79.40
23010;DHT22;11671;49.990;8.028;2022-07-06T11:15:46;26.30;80.20
23010;DHT22;11671;49.990;8.028;2022-07-06T11:18:11;26.70;79.90
23010;DHT22;11671;49.990;8.028;2022-07-06T11:20:40;26.80;77.70
23010;DHT22;11671;49.990;8.028;2022-07-06T11:23:06;26.90;78.60
23010;DHT22;11671;49.990;8.028;2022-07-06T11:25:31;26.90;77.00
23010;DHT22;11671;49.990;8.028;2022-07-06T11:27:57;26.60;78.00
23010;DHT22;11671;49.990;8.028;2022-07-06T11:30:22;26.70;79.30
23010;DHT22;11671;49.990;8.028;2022-07-06T11:32:48;26.70;79.80
23010;DHT22;11671;49.990;8.028;2022-07-06T11:35:20;26.70;79.40
23010;DHT22;11671;49.990;8.028;2022-07-06T11:37:46;26.60;79.60
23010;DHT22;11671;49.990;8.028;2022-07-06T11:40:11;26.50;77.50
23010;DHT22;11671;49.990;8.028;2022-07-06T11:42:37;26.70;78.60
23010;DHT22;11671;49.990;8.028;2022-07-06T11:45:03;26.70;78.00
23010;DHT22;11671;49.990;8.028;2022-07-06T11:47:31;26.80;76.30
23010;DHT22;11671;49.990;8.028;2022-07-06T11:49:57;26.60;75.40
23010;DHT22;11671;49.990;8.028;2022-07-06T11:52:22;26.40;76.00
23010;DHT22;11671;49.990;8.028;2022-07-06T11:54:48;26.10;75.30
23010;DHT22;11671;49.990;8.028;2022-07-06T11:57:14;26.30;76.70
23010;DHT22;11671;49.990;8.028;2022-07-06T11:59:41;26.70;76.90
23010;DHT22;11671;49.990;8.028;2022-07-06T12:02:08;26.70;76.90
23010;DHT22;11671;49.990;8.028;2022-07-06T12:04:38;26.90;76.20
23010;DHT22;11671;49.990;8.028;2022-07-06T12:07:05;26.80;76.90
23010;DHT22;11671;49.990;8.028;2022-07-06T12:09:34;26.50;76.10
23010;DHT22;11671;49.990;8.028;2022-07-06T12:12:00;26.50;75.80
23010;DHT22;11671;49.990;8.028;2022-07-06T12:14:29;26.40;75.60
23010;DHT22;11671;49.990;8.028;2022-07-06T12:16:55;26.40;75.90
23010;DHT22;11671;49.990;8.028;2022-07-06T12:19:21;26.40;75.40
23010;DHT22;11671;49.990;8.028;2022-07-06T12:21:48;26.40;77.20
23010;DHT22;11671;49.990;8.028;2022-07-06T12:24:18;26.50;76.80
23010;DHT22;11671;49.990;8.028;2022-07-06T12:26:43;26.70;75.20
23010;DHT22;11671;49.990;8.028;2022-07-06T12:29:10;26.70;76.00
23010;DHT22;11671;49.990;8.028;2022-07-06T12:31:39;26.50;74.00
23010;DHT22;11671;49.990;8.028;2022-07-06T12:34:05;26.50;73.70
23010;DHT22;11671;49.990;8.028;2022-07-06T12:36:31;26.60;74.50
23010;DHT22;11671;49.990;8.028;2022-07-06T12:38:59;26.70;74.40
23010;DHT22;11671;49.990;8.028;2022-07-06T12:41:32;26.70;73.40
23010;DHT22;11671;49.990;8.028;2022-07-06T12:44:08;26.30;75.50
23010;DHT22;11671;49.990;8.028;2022-07-06T12:46:40;26.20;76.00
23010;DHT22;11671;49.990;8.028;2022-07-06T12:49:15;26.10;75.50
23010;DHT22;11671;49.990;8.028;2022-07-06T12:51:58;26.20;75.10
23010;DHT22;11671;49.990;8.028;2022-07-06T12:54:25;26.30;75.90
23010;DHT22;11671;49.990;8.028;2022-07-06T12:59:38;26.80;73.90
23010;DHT22;11671;49.990;8.028;2022-07-06T13:02:05;27.00;73.70
23010;DHT22;11671;49.990;8.028;2022-07-06T13:04:31;27.00;73.60
23010;DHT22;11671;49.990;8.028;2022-07-06T13:06:57;26.70;76.00
23010;DHT22;11671;49.990;8.028;2022-07-06T13:09:23;26.50;74.90
23010;DHT22;11671;49.990;8.028;2022-07-06T13:11:49;26.50;75.60
23010;DHT22;11671;49.990;8.028;2022-07-06T13:14:15;26.60;76.80
23010;DHT22;11671;49.990;8.028;2022-07-06T13:16:42;26.90;75.30
23010;DHT22;11671;49.990;8.028;2022-07-06T13:19:07;26.90;74.80
23010;DHT22;11671;49.990;8.028;2022-07-06T13:21:33;26.80;74.90
23010;DHT22;11671;49.990;8.028;2022-07-06T13:23:58;27.00;75.50
23010;DHT22;11671;49.990;8.028;2022-07-06T13:26:24;27.00;74.80
23010;DHT22;11671;49.990;8.028;2022-07-06T13:28:49;27.10;74.70
23010;DHT22;11671;49.990;8.028;2022-07-06T13:31:15;27.40;75.30
23010;DHT22;11671;49.990;8.028;2022-07-06T13:33:40;27.50;74.10
23010;DHT22;11671;49.990;8.028;2022-07-06T13:36:06;27.60;73.30
23010;DHT22;11671;49.990;8.028;2022-07-06T13:38:32;27.30;74.60
23010;DHT22;11671;49.990;8.028;2022-07-06T13:40:57;27.10;75.00
23010;DHT22;11671;49.990;8.028;2022-07-06T13:43:22;26.70;76.20
23010;DHT22;11671;49.990;8.028;2022-07-06T13:45:48;26.40;76.30
23010;DHT22;11671;49.990;8.028;2022-07-06T13:48:14;26.40;78.10
23010;DHT22;11671;49.990;8.028;2022-07-06T13:50:39;26.50;77.40
23010;DHT22;11671;49.990;8.028;2022-07-06T13:53:05;26.50;77.10
23010;DHT22;11671;49.990;8.028;2022-07-06T13:55:31;26.10;78.50
23010;DHT22;11671;49.990;8.028;2022-07-06T13:57:57;26.10;77.10
23010;DHT22;11671;49.990;8.028;2022-07-06T14:00:22;26.10;75.80
23010;DHT22;11671;49.990;8.028;2022-07-06T14:02:48;26.10;76.10
23010;DHT22;11671;49.990;8.028;2022-07-06T14:05:13;26.00;76.80
23010;DHT22;11671;49.990;8.028;2022-07-06T14:07:39;26.10;78.10
23010;DHT22;11671;49.990;8.028;2022-07-06T14:10:04;26.00;76.90
23010;DHT22;11671;49.990;8.028;2022-07-06T14:12:30;25.90;77.00
23010;DHT22;11671;49.990;8.028;2022-07-06T14:17:22;25.50;76.60
23010;DHT22;11671;49.990;8.028;2022-07-06T14:19:50;25.50;78.00
23010;DHT22;11671;49.990;8.028;2022-07-06T14:22:16;25.40;78.50
23010;DHT22;11671;49.990;8.028;2022-07-06T14:24:41;25.10;78.00
23010;DHT22;11671;49.990;8.028;2022-07-06T14:27:07;25.20;78.20
23010;DHT22;11671;49.990;8.028;2022-07-06T14:29:32;25.10;78.40
23010;DHT22;11671;49.990;8.028;2022-07-06T14:31:58;25.00;79.00
23010;DHT22;11671;49.990;8.028;2022-07-06T14:34:23;25.10;78.10
23010;DHT22;11671;49.990;8.028;2022-07-06T14:36:49;25.20;77.80
23010;DHT22;11671;49.990;8.028;2022-07-06T14:39:15;25.10;77.70
23010;DHT22;11671;49.990;8.028;2022-07-06T14:41:40;25.00;78.70
23010;DHT22;11671;49.990;8.028;2022-07-06T14:44:06;24.90;78.60
23010;DHT22;11671;49.990;8.028;2022-07-06T14:46:32;24.80;78.70
23010;DHT22;11671;49.990;8.028;2022-07-06T14:48:59;24.70;79.10
23010;DHT22;11671;49.990;8.028;2022-07-06T14:51:25;24.80;79.40
23010;DHT22;11671;49.990;8.028;2022-07-06T14:53:51;24.80;79.90
23010;DHT22;11671;49.990;8.028;2022-07-06T14:56:16;24.80;80.40
23010;DHT22;11671;49.990;8.028;2022-07-06T14:58:42;24.80;81.00
23010;DHT22;11671;49.990;8.028;2022-07-06T15:01:07;24.80;79.60
23010;DHT22;11671;49.990;8.028;2022-07-06T15:03:32;24.70;80.10
23010;DHT22;11671;49.990;8.028;2022-07-06T15:05:58;24.60;80.10
23010;DHT22;11671;49.990;8.028;2022-07-06T15:08:24;24.50;80.00
23010;DHT22;11671;49.990;8.028;2022-07-06T15:10:49;24.60;80.20
23010;DHT22;11671;49.990;8.028;2022-07-06T15:13:15;24.70;80.10
23010;DHT22;11671;49.990;8.028;2022-07-06T15:15:41;24.70;80.10
23010;DHT22;11671;49.990;8.028;2022-07-06T15:18:06;24.80;79.60
23010;DHT22;11671;49.990;8.028;2022-07-06T15:20:32;24.80;79.20
23010;DHT22;11671;49.990;8.028;2022-07-06T15:22:58;24.90;80.80
23010;DHT22;11671;49.990;8.028;2022-07-06T15:25:24;25.00;80.70
23010;DHT22;11671;49.990;8.028;2022-07-06T15:27:50;25.10;80.50
23010;DHT22;11671;49.990;8.028;2022-07-06T15:30:16;25.10;81.50
23010;DHT22;11671;49.990;8.028;2022-07-06T15:32:41;25.20;80.40
23010;DHT22;11671;49.990;8.028;2022-07-06T15:35:07;25.20;79.20
23010;DHT22;11671;49.990;8.028;2022-07-06T15:37:33;25.20;79.40
23010;DHT22;11671;49.990;8.028;2022-07-06T15:39:59;25.30;79.30
23010;DHT22;11671;49.990;8.028;2022-07-06T15:42:25;25.20;79.20
23010;DHT22;11671;49.990;8.028;2022-07-06T15:44:50;25.10;80.10
23010;DHT22;11671;49.990;8.028;2022-07-06T15:47:18;24.80;80.10
23010;DHT22;11671;49.990;8.028;2022-07-06T15:49:44;24.70;79.40